sensor_id;sensor_type;location;lat;lon;timestamp;temperature;humidity
81212;DHT22;70686;52.494;13.420;2023-09-19T00:02:19;19.30;79.00
81212;DHT22;70686;52.494;13.420;2023-09-19T00:04:44;19.30;79.40
81212;DHT22;70686;52.494;13.420;2023-09-19T00:07:10;19.20;79.50
81212;DHT22;70686;52.494;13.420;2023-09-19T00:09:35;19.20;79.60
81212;DHT22;70686;52.494;13.420;2023-09-19T00:12:06;19.20;79.60
81212;DHT22;70686;52.494;13.420;2023-09-19T00:14:32;19.20;79.90
81212;DHT22;70686;52.494;13.420;2023-09-19T00:17:01;19.10;79.60
81212;DHT22;70686;52.494;13.420;2023-09-19T00:19:34;19.00;79.90
81212;DHT22;70686;52.494;13.420;2023-09-19T00:21:59;19.00;80.20
81212;DHT22;70686;52.494;13.420;2023-09-19T00:24:25;19.00;80.00
81212;DHT22;70686;52.494;13.420;2023-09-19T00:26:50;19.10;79.80
81212;DHT22;70686;52.494;13.420;2023-09-19T00:29:16;19.00;79.90
81212;DHT22;70686;52.494;13.420;2023-09-19T00:31:45;19.00;80.00
81212;DHT22;70686;52.494;13.420;2023-09-19T00:34:10;19.00;80.00
81212;DHT22;70686;52.494;13.420;2023-09-19T00:36:39;19.00;79.80
81212;DHT22;70686;52.494;13.420;2023-09-19T00:39:05;19.00;79.80
81212;DHT22;70686;52.494;13.420;2023-09-19T00:41:34;19.00;79.50
81212;DHT22;70686;52.494;13.420;2023-09-19T00:44:02;19.00;79.70
81212;DHT22;70686;52.494;13.420;2023-09-19T00:46:28;19.00;79.60
81212;DHT22;70686;52.494;13.420;2023-09-19T00:48:54;19.00;79.50
81212;DHT22;70686;52.494;13.420;2023-09-19T00:51:20;19.00;79.50
81212;DHT22;70686;52.494;13.420;2023-09-19T00:53:48;19.00;79.70
81212;DHT22;70686;52.494;13.420;2023-09-19T00:56:15;18.90;79.70
81212;DHT22;70686;52.494;13.420;2023-09-19T00:58:44;18.90;79.60
81212;DHT22;70686;52.494;13.420;2023-09-19T01:01:10;18.90;79.70
81212;DHT22;70686;52.494;13.420;2023-09-19T01:03:37;18.80;79.80
81212;DHT22;70686;52.494;13.420;2023-09-19T01:06:03;18.80;79.70
81212;DHT22;70686;52.494;13.420;2023-09-19T01:08:29;18.90;79.50
81212;DHT22;70686;52.494;13.420;2023-09-19T01:11:28;18.80;79.70
81212;DHT22;70686;52.494;13.420;2023-09-19T01:20:03;18.70;79.90
81212;DHT22;70686;52.494;13.420;2023-09-19T01:23:00;18.70;80.20
81212;DHT22;70686;52.494;13.420;2023-09-19T01:25:56;18.70;80.40
81212;DHT22;70686;52.494;13.420;2023-09-19T01:28:39;18.60;80.20
81212;DHT22;70686;52.494;13.420;2023-09-19T01:31:10;18.70;80.30
81212;DHT22;70686;52.494;13.420;2023-09-19T01:33:59;18.60;80.40
81212;DHT22;70686;52.494;13.420;2023-09-19T01:36:29;18.70;80.00
81212;DHT22;70686;52.494;13.420;2023-09-19T01:38:55;18.70;79.90
81212;DHT22;70686;52.494;13.420;2023-09-19T01:44:40;18.80;79.70
81212;DHT22;70686;52.494;13.420;2023-09-19T01:47:24;18.70;79.80
81212;DHT22;70686;52.494;13.420;2023-09-19T01:50:11;18.70;80.00
81212;DHT22;70686;52.494;13.420;2023-09-19T01:52:46;18.70;80.00
81212;DHT22;70686;52.494;13.420;2023-09-19T01:55:14;18.60;80.30
81212;DHT22;70686;52.494;13.420;2023-09-19T02:00:21;18.60;80.40
81212;DHT22;70686;52.494;13.420;2023-09-19T02:02:49;18.60;80.30
81212;DHT22;70686;52.494;13.420;2023-09-19T02:05:25;18.60;80.00
81212;DHT22;70686;52.494;13.420;2023-09-19T02:07:51;18.50;80.50
81212;DHT22;70686;52.494;13.420;2023-09-19T02:10:18;18.40;80.90
81212;DHT22;70686;52.494;13.420;2023-09-19T02:12:44;18.30;81.30
81212;DHT22;70686;52.494;13.420;2023-09-19T02:15:10;18.30;81.40
81212;DHT22;70686;52.494;13.420;2023-09-19T02:17:36;18.20;81.50
81212;DHT22;70686;52.494;13.420;2023-09-19T02:20:01;18.20;81.90
81212;DHT22;70686;52.494;13.420;2023-09-19T02:22:29;18.10;83.30
81212;DHT22;70686;52.494;13.420;2023-09-19T02:24:55;18.10;82.00
81212;DHT22;70686;52.494;13.420;2023-09-19T02:27:23;18.20;81.60
81212;DHT22;70686;52.494;13.420;2023-09-19T02:29:49;18.20;81.70
81212;DHT22;70686;52.494;13.420;2023-09-19T02:32:15;18.20;81.50
81212;DHT22;70686;52.494;13.420;2023-09-19T02:34:43;18.10;82.10
81212;DHT22;70686;52.494;13.420;2023-09-19T02:37:10;18.10;82.40
81212;DHT22;70686;52.494;13.420;2023-09-19T02:39:36;18.00;82.60
81212;DHT22;70686;52.494;13.420;2023-09-19T02:42:02;18.00;82.80
81212;DHT22;70686;52.494;13.420;2023-09-19T02:44:29;18.00;82.60
81212;DHT22;70686;52.494;13.420;2023-09-19T02:46:55;18.10;82.40
81212;DHT22;70686;52.494;13.420;2023-09-19T02:49:22;18.00;82.50
81212;DHT22;70686;52.494;13.420;2023-09-19T02:51:48;18.10;82.40
81212;DHT22;70686;52.494;13.420;2023-09-19T02:54:14;18.10;82.30
81212;DHT22;70686;52.494;13.420;2023-09-19T02:56:41;18.10;82.40
81212;DHT22;70686;52.494;13.420;2023-09-19T02:59:07;18.10;82.30
81212;DHT22;70686;52.494;13.420;2023-09-19T03:01:32;18.10;82.20
81212;DHT22;70686;52.494;13.420;2023-09-19T03:03:59;18.10;82.00
81212;DHT22;70686;52.494;13.420;2023-09-19T03:06:25;18.20;81.90
81212;DHT22;70686;52.494;13.420;2023-09-19T03:08:50;18.10;81.90
81212;DHT22;70686;52.494;13.420;2023-09-19T03:11:17;18.20;81.80
81212;DHT22;70686;52.494;13.420;2023-09-19T03:13:53;18.10;81.70
81212;DHT22;70686;52.494;13.420;2023-09-19T03:16:53;18.10;81.70
81212;DHT22;70686;52.494;13.420;2023-09-19T03:19:19;18.20;81.60
81212;DHT22;70686;52.494;13.420;2023-09-19T03:21:46;18.20;81.30
81212;DHT22;70686;52.494;13.420;2023-09-19T03:24:14;18.20;80.90
81212;DHT22;70686;52.494;13.420;2023-09-19T03:26:40;18.20;80.90
81212;DHT22;70686;52.494;13.420;2023-09-19T03:29:05;18.20;80.50
81212;DHT22;70686;52.494;13.420;2023-09-19T03:31:32;18.20;80.30
81212;DHT22;70686;52.494;13.420;2023-09-19T03:33:58;18.20;80.30
81212;DHT22;70686;52.494;13.420;2023-09-19T03:36:23;18.10;80.00
81212;DHT22;70686;52.494;13.420;2023-09-19T03:38:49;18.10;80.40
81212;DHT22;70686;52.494;13.420;2023-09-19T03:41:14;18.10;80.40
81212;DHT22;70686;52.494;13.420;2023-09-19T03:43:42;18.10;80.80
81212;DHT22;70686;52.494;13.420;2023-09-19T03:46:08;18.20;79.20
81212;DHT22;70686;52.494;13.420;2023-09-19T03:48:34;18.20;78.80
81212;DHT22;70686;52.494;13.420;2023-09-19T03:50:59;18.20;78.40
81212;DHT22;70686;52.494;13.420;2023-09-19T03:53:25;18.20;78.10
81212;DHT22;70686;52.494;13.420;2023-09-19T03:55:51;18.30;78.10
81212;DHT22;70686;52.494;13.420;2023-09-19T03:58:17;18.20;77.80
81212;DHT22;70686;52.494;13.420;2023-09-19T04:00:42;18.20;77.90
81212;DHT22;70686;52.494;13.420;2023-09-19T04:03:08;18.10;78.10
81212;DHT22;70686;52.494;13.420;2023-09-19T04:05:36;18.00;78.50
81212;DHT22;70686;52.494;13.420;2023-09-19T04:08:01;18.00;79.00
81212;DHT22;70686;52.494;13.420;2023-09-19T04:10:27;18.00;77.70
81212;DHT22;70686;52.494;13.420;2023-09-19T04:12:54;18.00;77.40
81212;DHT22;70686;52.494;13.420;2023-09-19T04:15:20;18.10;76.40
81212;DHT22;70686;52.494;13.420;2023-09-19T04:17:50;18.20;75.70
81212;DHT22;70686;52.494;13.420;2023-09-19T04:20:18;18.10;75.30
81212;DHT22;70686;52.494;13.420;2023-09-19T04:22:45;18.10;74.70
81212;DHT22;70686;52.494;13.420;2023-09-19T04:25:11;18.10;74.50
81212;DHT22;70686;52.494;13.420;2023-09-19T04:27:37;18.20;74.10
81212;DHT22;70686;52.494;13.420;2023-09-19T04:30:04;18.20;73.90
81212;DHT22;70686;52.494;13.420;2023-09-19T04:32:35;18.20;73.50
81212;DHT22;70686;52.494;13.420;2023-09-19T04:35:04;18.20;73.20
81212;DHT22;70686;52.494;13.420;2023-09-19T04:37:31;18.20;73.10
81212;DHT22;70686;52.494;13.420;2023-09-19T04:39:57;18.20;73.00
81212;DHT22;70686;52.494;13.420;2023-09-19T04:42:22;18.20;73.00
81212;DHT22;70686;52.494;13.420;2023-09-19T04:44:50;18.10;72.90
81212;DHT22;70686;52.494;13.420;2023-09-19T04:47:19;18.10;73.30
81212;DHT22;70686;52.494;13.420;2023-09-19T04:49:44;18.10;73.10
81212;DHT22;70686;52.494;13.420;2023-09-19T04:52:11;18.10;73.10
81212;DHT22;70686;52.494;13.420;2023-09-19T04:54:37;18.10;73.50
81212;DHT22;70686;52.494;13.420;2023-09-19T04:57:04;18.10;73.20
81212;DHT22;70686;52.494;13.420;2023-09-19T04:59:31;18.10;73.10
81212;DHT22;70686;52.494;13.420;2023-09-19T05:01:56;18.00;73.60
81212;DHT22;70686;52.494;13.420;2023-09-19T05:04:22;18.00;73.20
81212;DHT22;70686;52.494;13.420;2023-09-19T05:06:48;17.90;73.40
81212;DHT22;70686;52.494;13.420;2023-09-19T05:09:13;17.90;73.80
81212;DHT22;70686;52.494;13.420;2023-09-19T05:11:41;17.80;73.50
81212;DHT22;70686;52.494;13.420;2023-09-19T05:14:06;17.80;73.80
81212;DHT22;70686;52.494;13.420;2023-09-19T05:16:32;17.80;73.30
81212;DHT22;70686;52.494;13.420;2023-09-19T05:18:58;17.80;73.10
81212;DHT22;70686;52.494;13.420;2023-09-19T05:21:26;17.80;73.10
81212;DHT22;70686;52.494;13.420;2023-09-19T05:23:54;17.90;73.20
81212;DHT22;70686;52.494;13.420;2023-09-19T05:26:21;17.90;72.80
81212;DHT22;70686;52.494;13.420;2023-09-19T05:28:46;17.90;73.20
81212;DHT22;70686;52.494;13.420;2023-09-19T05:31:13;17.80;73.50
81212;DHT22;70686;52.494;13.420;2023-09-19T05:33:39;17.80;73.30
81212;DHT22;70686;52.494;13.420;2023-09-19T05:36:05;17.80;73.30
81212;DHT22;70686;52.494;13.420;2023-09-19T05:38:30;17.90;73.20
81212;DHT22;70686;52.494;13.420;2023-09-19T05:40:58;17.90;72.80
81212;DHT22;70686;52.494;13.420;2023-09-19T05:43:23;17.80;72.80
81212;DHT22;70686;52.494;13.420;2023-09-19T05:45:49;17.90;72.90
81212;DHT22;70686;52.494;13.420;2023-09-19T05:48:17;17.90;72.60
81212;DHT22;70686;52.494;13.420;2023-09-19T05:50:43;17.90;72.80
81212;DHT22;70686;52.494;13.420;2023-09-19T05:53:12;17.90;72.40
81212;DHT22;70686;52.494;13.420;2023-09-19T05:55:40;17.80;72.70
81212;DHT22;70686;52.494;13.420;2023-09-19T05:58:05;17.90;72.50
81212;DHT22;70686;52.494;13.420;2023-09-19T06:00:31;17.90;72.00
81212;DHT22;70686;52.494;13.420;2023-09-19T06:02:58;17.90;73.10
81212;DHT22;70686;52.494;13.420;2023-09-19T06:05:25;17.90;71.80
81212;DHT22;70686;52.494;13.420;2023-09-19T06:07:56;17.90;72.10
81212;DHT22;70686;52.494;13.420;2023-09-19T06:10:25;17.90;72.10
81212;DHT22;70686;52.494;13.420;2023-09-19T06:12:51;17.80;72.30
81212;DHT22;70686;52.494;13.420;2023-09-19T06:15:17;17.90;72.20
81212;DHT22;70686;52.494;13.420;2023-09-19T06:17:49;17.90;71.90
81212;DHT22;70686;52.494;13.420;2023-09-19T06:20:15;17.90;72.00
81212;DHT22;70686;52.494;13.420;2023-09-19T06:22:42;17.90;72.20
81212;DHT22;70686;52.494;13.420;2023-09-19T06:25:09;17.90;72.40
81212;DHT22;70686;52.494;13.420;2023-09-19T06:27:37;17.80;72.00
81212;DHT22;70686;52.494;13.420;2023-09-19T06:30:04;18.00;71.70
81212;DHT22;70686;52.494;13.420;2023-09-19T06:32:29;18.00;71.50
81212;DHT22;70686;52.494;13.420;2023-09-19T06:34:55;18.00;71.70
81212;DHT22;70686;52.494;13.420;2023-09-19T06:37:21;18.10;71.30
81212;DHT22;70686;52.494;13.420;2023-09-19T06:39:47;18.10;70.80
81212;DHT22;70686;52.494;13.420;2023-09-19T06:42:15;18.10;70.80
81212;DHT22;70686;52.494;13.420;2023-09-19T06:44:42;18.20;70.80
81212;DHT22;70686;52.494;13.420;2023-09-19T06:47:08;18.30;70.50
81212;DHT22;70686;52.494;13.420;2023-09-19T06:49:35;18.30;70.40
81212;DHT22;70686;52.494;13.420;2023-09-19T06:52:00;18.30;69.90
81212;DHT22;70686;52.494;13.420;2023-09-19T06:54:27;18.30;70.30
81212;DHT22;70686;52.494;13.420;2023-09-19T06:56:56;18.40;69.60
81212;DHT22;70686;52.494;13.420;2023-09-19T06:59:24;18.50;69.60
81212;DHT22;70686;52.494;13.420;2023-09-19T07:01:49;18.60;69.20
81212;DHT22;70686;52.494;13.420;2023-09-19T07:04:16;18.70;68.40
81212;DHT22;70686;52.494;13.420;2023-09-19T07:06:42;18.90;67.60
81212;DHT22;70686;52.494;13.420;2023-09-19T07:09:08;19.00;67.90
81212;DHT22;70686;52.494;13.420;2023-09-19T07:11:34;19.10;67.20
81212;DHT22;70686;52.494;13.420;2023-09-19T07:14:00;19.20;67.00
81212;DHT22;70686;52.494;13.420;2023-09-19T07:16:28;19.20;66.90
81212;DHT22;70686;52.494;13.420;2023-09-19T07:18:54;19.30;65.90
81212;DHT22;70686;52.494;13.420;2023-09-19T07:21:22;19.40;65.30
81212;DHT22;70686;52.494;13.420;2023-09-19T07:23:48;19.30;65.40
81212;DHT22;70686;52.494;13.420;2023-09-19T07:26:15;19.30;65.80
81212;DHT22;70686;52.494;13.420;2023-09-19T07:28:40;19.40;65.30
81212;DHT22;70686;52.494;13.420;2023-09-19T07:31:06;19.40;64.70
81212;DHT22;70686;52.494;13.420;2023-09-19T07:33:35;19.40;64.60
81212;DHT22;70686;52.494;13.420;2023-09-19T07:36:01;19.30;64.10
81212;DHT22;70686;52.494;13.420;2023-09-19T07:38:27;19.30;64.40
81212;DHT22;70686;52.494;13.420;2023-09-19T07:40:53;19.30;64.90
81212;DHT22;70686;52.494;13.420;2023-09-19T07:43:18;19.40;64.60
81212;DHT22;70686;52.494;13.420;2023-09-19T07:45:44;19.50;64.00
81212;DHT22;70686;52.494;13.420;2023-09-19T07:48:10;19.60;63.90
81212;DHT22;70686;52.494;13.420;2023-09-19T07:50:40;19.60;63.80
81212;DHT22;70686;52.494;13.420;2023-09-19T07:53:07;19.60;63.30
81212;DHT22;70686;52.494;13.420;2023-09-19T07:55:32;19.60;63.30
81212;DHT22;70686;52.494;13.420;2023-09-19T07:57:59;19.70;62.90
81212;DHT22;70686;52.494;13.420;2023-09-19T08:00:25;19.80;61.50
81212;DHT22;70686;52.494;13.420;2023-09-19T08:02:50;19.60;61.80
81212;DHT22;70686;52.494;13.420;2023-09-19T08:05:17;19.70;61.60
81212;DHT22;70686;52.494;13.420;2023-09-19T08:07:45;19.70;61.50
81212;DHT22;70686;52.494;13.420;2023-09-19T08:10:14;19.60;61.70
81212;DHT22;70686;52.494;13.420;2023-09-19T08:12:45;19.70;61.60
81212;DHT22;70686;52.494;13.420;2023-09-19T08:15:18;19.50;61.40
81212;DHT22;70686;52.494;13.420;2023-09-19T08:17:45;19.40;61.30
81212;DHT22;70686;52.494;13.420;2023-09-19T08:20:12;19.40;61.20
81212;DHT22;70686;52.494;13.420;2023-09-19T08:22:51;19.40;61.10
81212;DHT22;70686;52.494;13.420;2023-09-19T08:25:21;19.30;61.40
81212;DHT22;70686;52.494;13.420;2023-09-19T08:27:48;19.30;61.40
81212;DHT22;70686;52.494;13.420;2023-09-19T08:30:22;19.30;60.40
81212;DHT22;70686;52.494;13.420;2023-09-19T08:33:00;19.30;60.30
81212;DHT22;70686;52.494;13.420;2023-09-19T08:35:27;19.20;61.20
81212;DHT22;70686;52.494;13.420;2023-09-19T08:37:52;19.30;61.10
81212;DHT22;70686;52.494;13.420;2023-09-19T08:40:18;19.10;60.90
81212;DHT22;70686;52.494;13.420;2023-09-19T08:42:54;19.00;60.90
81212;DHT22;70686;52.494;13.420;2023-09-19T08:45:21;19.10;60.80
81212;DHT22;70686;52.494;13.420;2023-09-19T08:48:16;19.10;61.00
81212;DHT22;70686;52.494;13.420;2023-09-19T08:50:57;19.20;61.90
81212;DHT22;70686;52.494;13.420;2023-09-19T08:55:59;19.40;60.30
81212;DHT22;70686;52.494;13.420;2023-09-19T08:58:34;19.40;60.20
81212;DHT22;70686;52.494;13.420;2023-09-19T09:01:00;19.60;59.70
81212;DHT22;70686;52.494;13.420;2023-09-19T09:03:32;19.60;59.50
81212;DHT22;70686;52.494;13.420;2023-09-19T09:05:58;19.60;59.20
81212;DHT22;70686;52.494;13.420;2023-09-19T09:08:24;19.70;58.80
81212;DHT22;70686;52.494;13.420;2023-09-19T09:10:51;19.70;59.00
81212;DHT22;70686;52.494;13.420;2023-09-19T09:13:17;19.70;58.40
81212;DHT22;70686;52.494;13.420;2023-09-19T09:15:43;19.90;58.20
81212;DHT22;70686;52.494;13.420;2023-09-19T09:18:10;20.00;57.60
81212;DHT22;70686;52.494;13.420;2023-09-19T09:20:36;20.10;57.40
81212;DHT22;70686;52.494;13.420;2023-09-19T09:23:01;20.30;57.00
81212;DHT22;70686;52.494;13.420;2023-09-19T09:28:21;20.40;56.30
81212;DHT22;70686;52.494;13.420;2023-09-19T09:30:47;20.30;56.00
81212;DHT22;70686;52.494;13.420;2023-09-19T09:33:14;20.30;55.40
81212;DHT22;70686;52.494;13.420;2023-09-19T09:35:56;20.20;55.70
81212;DHT22;70686;52.494;13.420;2023-09-19T09:38:27;20.20;55.50
81212;DHT22;70686;52.494;13.420;2023-09-19T09:40:54;20.20;55.70
81212;DHT22;70686;52.494;13.420;2023-09-19T09:43:27;20.30;55.40
81212;DHT22;70686;52.494;13.420;2023-09-19T09:51:38;20.50;54.50
81212;DHT22;70686;52.494;13.420;2023-09-19T09:54:15;20.40;53.30
81212;DHT22;70686;52.494;13.420;2023-09-19T09:57:01;20.30;53.90
81212;DHT22;70686;52.494;13.420;2023-09-19T09:59:55;20.20;53.60
81212;DHT22;70686;52.494;13.420;2023-09-19T10:02:28;20.30;53.20
81212;DHT22;70686;52.494;13.420;2023-09-19T10:05:19;20.60;52.90
81212;DHT22;70686;52.494;13.420;2023-09-19T10:07:49;20.80;51.70
81212;DHT22;70686;52.494;13.420;2023-09-19T10:10:39;20.80;50.00
81212;DHT22;70686;52.494;13.420;2023-09-19T10:13:09;20.80;49.20
81212;DHT22;70686;52.494;13.420;2023-09-19T10:15:42;20.70;50.10
81212;DHT22;70686;52.494;13.420;2023-09-19T10:18:14;20.90;50.20
81212;DHT22;70686;52.494;13.420;2023-09-19T10:20:45;20.80;50.20
81212;DHT22;70686;52.494;13.420;2023-09-19T10:23:12;20.80;51.00
81212;DHT22;70686;52.494;13.420;2023-09-19T10:25:44;21.00;49.90
81212;DHT22;70686;52.494;13.420;2023-09-19T10:28:14;21.10;49.20
81212;DHT22;70686;52.494;13.420;2023-09-19T10:30:45;21.10;49.50
81212;DHT22;70686;52.494;13.420;2023-09-19T10:33:13;21.10;48.90
81212;DHT22;70686;52.494;13.420;2023-09-19T10:35:45;21.20;49.00
81212;DHT22;70686;52.494;13.420;2023-09-19T10:38:17;21.00;48.30
81212;DHT22;70686;52.494;13.420;2023-09-19T10:40:44;20.90;48.40
81212;DHT22;70686;52.494;13.420;2023-09-19T10:43:16;20.80;48.40
81212;DHT22;70686;52.494;13.420;2023-09-19T10:45:45;20.80;48.90
81212;DHT22;70686;52.494;13.420;2023-09-19T10:48:15;20.90;48.80
81212;DHT22;70686;52.494;13.420;2023-09-19T10:50:48;20.60;49.50
81212;DHT22;70686;52.494;13.420;2023-09-19T10:53:16;20.50;49.60
81212;DHT22;70686;52.494;13.420;2023-09-19T10:55:55;20.40;49.20
81212;DHT22;70686;52.494;13.420;2023-09-19T10:58:26;20.40;48.40
81212;DHT22;70686;52.494;13.420;2023-09-19T11:00:56;20.50;47.90
81212;DHT22;70686;52.494;13.420;2023-09-19T11:03:23;20.80;47.10
81212;DHT22;70686;52.494;13.420;2023-09-19T11:06:04;20.70;46.70
81212;DHT22;70686;52.494;13.420;2023-09-19T11:11:39;20.80;46.70
81212;DHT22;70686;52.494;13.420;2023-09-19T11:16:39;21.00;46.40
81212;DHT22;70686;52.494;13.420;2023-09-19T11:19:05;21.10;46.30
81212;DHT22;70686;52.494;13.420;2023-09-19T11:26:43;21.00;45.90
81212;DHT22;70686;52.494;13.420;2023-09-19T11:29:26;21.00;45.60
81212;DHT22;70686;52.494;13.420;2023-09-19T11:31:52;21.10;44.90
81212;DHT22;70686;52.494;13.420;2023-09-19T11:40:07;21.10;44.70
81212;DHT22;70686;52.494;13.420;2023-09-19T11:42:43;21.20;44.50
81212;DHT22;70686;52.494;13.420;2023-09-19T11:48:18;21.20;45.00
81212;DHT22;70686;52.494;13.420;2023-09-19T11:50:45;21.20;45.20
81212;DHT22;70686;52.494;13.420;2023-09-19T11:53:14;21.10;45.50
81212;DHT22;70686;52.494;13.420;2023-09-19T11:55:41;21.30;45.70
81212;DHT22;70686;52.494;13.420;2023-09-19T11:58:09;21.50;45.70
81212;DHT22;70686;52.494;13.420;2023-09-19T12:00:39;21.50;46.00
81212;DHT22;70686;52.494;13.420;2023-09-19T12:03:10;21.40;44.10
81212;DHT22;70686;52.494;13.420;2023-09-19T12:05:37;21.40;44.30
81212;DHT22;70686;52.494;13.420;2023-09-19T12:08:04;21.40;44.10
81212;DHT22;70686;52.494;13.420;2023-09-19T12:10:33;21.40;43.60
81212;DHT22;70686;52.494;13.420;2023-09-19T12:12:59;21.50;43.80
81212;DHT22;70686;52.494;13.420;2023-09-19T12:15:25;21.50;43.80
81212;DHT22;70686;52.494;13.420;2023-09-19T12:18:00;21.50;43.20
81212;DHT22;70686;52.494;13.420;2023-09-19T12:20:45;21.60;43.60
81212;DHT22;70686;52.494;13.420;2023-09-19T12:23:16;21.50;43.70
81212;DHT22;70686;52.494;13.420;2023-09-19T12:25:43;21.40;43.10
81212;DHT22;70686;52.494;13.420;2023-09-19T12:28:18;21.40;43.80
81212;DHT22;70686;52.494;13.420;2023-09-19T12:30:43;21.30;43.20
81212;DHT22;70686;52.494;13.420;2023-09-19T12:33:19;21.30;43.20
81212;DHT22;70686;52.494;13.420;2023-09-19T12:35:49;21.40;42.80
81212;DHT22;70686;52.494;13.420;2023-09-19T12:38:27;21.60;42.40
81212;DHT22;70686;52.494;13.420;2023-09-19T12:41:01;21.70;42.10
81212;DHT22;70686;52.494;13.420;2023-09-19T12:43:29;21.80;41.50
81212;DHT22;70686;52.494;13.420;2023-09-19T12:45:58;21.80;41.00
81212;DHT22;70686;52.494;13.420;2023-09-19T12:48:26;21.70;41.80
81212;DHT22;70686;52.494;13.420;2023-09-19T12:51:08;21.70;41.80
81212;DHT22;70686;52.494;13.420;2023-09-19T12:53:39;21.70;42.00
81212;DHT22;70686;52.494;13.420;2023-09-19T12:56:11;21.70;42.60
81212;DHT22;70686;52.494;13.420;2023-09-19T12:58:49;21.80;42.20
81212;DHT22;70686;52.494;13.420;2023-09-19T13:01:16;22.10;41.40
81212;DHT22;70686;52.494;13.420;2023-09-19T13:03:42;22.40;41.20
81212;DHT22;70686;52.494;13.420;2023-09-19T13:06:11;22.40;41.30
81212;DHT22;70686;52.494;13.420;2023-09-19T13:08:39;22.50;41.20
81212;DHT22;70686;52.494;13.420;2023-09-19T13:11:08;22.40;41.40
81212;DHT22;70686;52.494;13.420;2023-09-19T13:14:17;22.20;41.80
81212;DHT22;70686;52.494;13.420;2023-09-19T13:19:39;22.00;42.30
81212;DHT22;70686;52.494;13.420;2023-09-19T13:27:50;21.40;42.70
81212;DHT22;70686;52.494;13.420;2023-09-19T13:30:25;21.60;42.70
81212;DHT22;70686;52.494;13.420;2023-09-19T13:32:51;21.70;42.80
81212;DHT22;70686;52.494;13.420;2023-09-19T13:35:18;21.80;42.60
81212;DHT22;70686;52.494;13.420;2023-09-19T13:37:45;22.00;42.20
81212;DHT22;70686;52.494;13.420;2023-09-19T13:40:15;22.20;42.00
81212;DHT22;70686;52.494;13.420;2023-09-19T13:42:41;22.30;42.00
81212;DHT22;70686;52.494;13.420;2023-09-19T13:45:08;22.30;41.70
81212;DHT22;70686;52.494;13.420;2023-09-19T13:47:38;22.00;42.10
81212;DHT22;70686;52.494;13.420;2023-09-19T13:50:04;21.80;42.40
81212;DHT22;70686;52.494;13.420;2023-09-19T13:52:31;21.70;42.50
81212;DHT22;70686;52.494;13.420;2023-09-19T13:54:57;21.70;42.90
81212;DHT22;70686;52.494;13.420;2023-09-19T13:57:24;21.60;43.00
81212;DHT22;70686;52.494;13.420;2023-09-19T13:59:51;21.70;42.60
81212;DHT22;70686;52.494;13.420;2023-09-19T14:02:17;21.70;42.60
81212;DHT22;70686;52.494;13.420;2023-09-19T14:04:51;21.80;42.70
81212;DHT22;70686;52.494;13.420;2023-09-19T14:07:17;22.00;42.60
81212;DHT22;70686;52.494;13.420;2023-09-19T14:09:45;22.10;42.30
81212;DHT22;70686;52.494;13.420;2023-09-19T14:12:12;22.20;41.90
81212;DHT22;70686;52.494;13.420;2023-09-19T14:14:38;22.10;42.30
81212;DHT22;70686;52.494;13.420;2023-09-19T14:17:04;22.20;42.00
81212;DHT22;70686;52.494;13.420;2023-09-19T14:19:34;22.50;41.00
81212;DHT22;70686;52.494;13.420;2023-09-19T14:22:02;22.40;41.30
81212;DHT22;70686;52.494;13.420;2023-09-19T14:24:35;22.30;41.70
81212;DHT22;70686;52.494;13.420;2023-09-19T14:27:01;22.40;42.00
81212;DHT22;70686;52.494;13.420;2023-09-19T14:29:30;22.30;41.60
81212;DHT22;70686;52.494;13.420;2023-09-19T14:31:56;22.10;41.80
81212;DHT22;70686;52.494;13.420;2023-09-19T14:34:23;22.20;41.90
81212;DHT22;70686;52.494;13.420;2023-09-19T14:36:51;22.40;41.90
81212;DHT22;70686;52.494;13.420;2023-09-19T14:39:17;22.40;41.90
81212;DHT22;70686;52.494;13.420;2023-09-19T14:41:44;22.30;42.10
81212;DHT22;70686;52.494;13.420;2023-09-19T14:44:10;22.10;42.50
81212;DHT22;70686;52.494;13.420;2023-09-19T14:46:36;22.10;42.80
81212;DHT22;70686;52.494;13.420;2023-09-19T14:49:02;22.10;42.60
81212;DHT22;70686;52.494;13.420;2023-09-19T14:51:30;21.90;42.70
81212;DHT22;70686;52.494;13.420;2023-09-19T14:53:56;21.80;42.90
81212;DHT22;70686;52.494;13.420;2023-09-19T14:56:23;21.70;43.10
81212;DHT22;70686;52.494;13.420;2023-09-19T14:58:51;21.50;42.90
81212;DHT22;70686;52.494;13.420;2023-09-19T15:01:16;21.50;43.10
81212;DHT22;70686;52.494;13.420;2023-09-19T15:03:42;21.50;43.00
81212;DHT22;70686;52.494;13.420;2023-09-19T15:06:11;21.50;43.20
81212;DHT22;70686;52.494;13.420;2023-09-19T15:08:40;21.50;42.80
81212;DHT22;70686;52.494;13.420;2023-09-19T15:11:08;21.60;42.80
81212;DHT22;70686;52.494;13.420;2023-09-19T15:13:36;21.50;43.00
81212;DHT22;70686;52.494;13.420;2023-09-19T15:16:03;21.60;43.20
81212;DHT22;70686;52.494;13.420;2023-09-19T15:18:29;21.70;42.80
81212;DHT22;70686;52.494;13.420;2023-09-19T15:21:02;21.80;42.10
81212;DHT22;70686;52.494;13.420;2023-09-19T15:23:32;21.70;42.30
81212;DHT22;70686;52.494;13.420;2023-09-19T15:26:00;21.80;42.50
81212;DHT22;70686;52.494;13.420;2023-09-19T15:28:27;21.90;42.10
81212;DHT22;70686;52.494;13.420;2023-09-19T15:31:12;21.90;41.80
81212;DHT22;70686;52.494;13.420;2023-09-19T15:33:39;21.90;42.10
81212;DHT22;70686;52.494;13.420;2023-09-19T15:38:32;21.90;42.10
81212;DHT22;70686;52.494;13.420;2023-09-19T15:41:19;22.10;42.00
81212;DHT22;70686;52.494;13.420;2023-09-19T15:43:46;22.10;42.00
81212;DHT22;70686;52.494;13.420;2023-09-19T15:46:11;22.30;42.00
81212;DHT22;70686;52.494;13.420;2023-09-19T15:48:39;22.20;41.80
81212;DHT22;70686;52.494;13.420;2023-09-19T15:51:05;22.20;42.20
81212;DHT22;70686;52.494;13.420;2023-09-19T15:53:43;22.40;43.20
81212;DHT22;70686;52.494;13.420;2023-09-19T15:56:09;22.70;41.60
81212;DHT22;70686;52.494;13.420;2023-09-19T15:58:36;23.00;41.00
81212;DHT22;70686;52.494;13.420;2023-09-19T16:01:10;23.00;41.00
81212;DHT22;70686;52.494;13.420;2023-09-19T16:03:37;22.80;41.30
81212;DHT22;70686;52.494;13.420;2023-09-19T16:06:14;22.40;42.00
81212;DHT22;70686;52.494;13.420;2023-09-19T16:08:41;22.10;42.90
81212;DHT22;70686;52.494;13.420;2023-09-19T16:11:07;21.80;43.80
81212;DHT22;70686;52.494;13.420;2023-09-19T16:13:34;21.70;43.70
81212;DHT22;70686;52.494;13.420;2023-09-19T16:16:00;21.50;44.60
81212;DHT22;70686;52.494;13.420;2023-09-19T16:18:25;21.50;44.50
81212;DHT22;70686;52.494;13.420;2023-09-19T16:20:51;21.50;44.40